createdAt,value
2022-09-09T00:01:21.551Z,99.90
2022-09-09T00:04:18.654Z,99.90
2022-09-09T00:06:57.577Z,99.90
2022-09-09T00:09:30.107Z,99.90
2022-09-09T00:12:04.308Z,99.90
2022-09-09T00:14:49.622Z,99.90
2022-09-09T00:17:37.450Z,99.90
2022-09-09T00:20:27.261Z,99.90
2022-09-09T00:23:17.230Z,99.90
2022-09-09T00:26:05.831Z,99.90
2022-09-09T00:28:36.491Z,99.90
2022-09-09T00:31:13.725Z,99.90
2022-09-09T00:33:41.283Z,99.90
2022-09-09T00:36:16.635Z,99.90
2022-09-09T00:38:52.996Z,99.90
2022-09-09T00:41:21.807Z,99.90
2022-09-09T00:44:02.194Z,99.90
2022-09-09T00:46:50.677Z,99.90
2022-09-09T00:49:23.095Z,1.00
2022-09-09T00:51:59.679Z,1.00
2022-09-09T00:54:40.222Z,1.00
2022-09-09T00:57:38.081Z,1.00
2022-09-09T01:00:24.009Z,1.00
2022-09-09T01:02:50.669Z,1.00
2022-09-09T01:05:54.054Z,1.00
2022-09-09T01:08:31.101Z,1.00
2022-09-09T01:10:58.844Z,1.00
2022-09-09T01:13:31.068Z,1.00
2022-09-09T01:16:03.510Z,1.00
2022-09-09T01:18:45.991Z,99.90
2022-09-09T01:21:28.495Z,1.00
2022-09-09T01:24:19.858Z,1.00
2022-09-09T01:26:47.651Z,1.00
2022-09-09T01:29:16.682Z,1.00
2022-09-09T01:31:53.149Z,99.90
2022-09-09T01:34:20.148Z,1.00
2022-09-09T01:37:11.998Z,1.00
2022-09-09T01:39:41.618Z,1.00
2022-09-09T01:42:10.787Z,1.00
2022-09-09T01:44:38.092Z,1.00
2022-09-09T01:47:05.798Z,1.00
2022-09-09T01:49:33.954Z,1.00
2022-09-09T01:52:00.958Z,1.00
2022-09-09T01:54:31.355Z,1.00
2022-09-09T01:57:18.982Z,99.90
2022-09-09T01:59:54.451Z,1.00
2022-09-09T02:02:31.130Z,1.00
2022-09-09T02:05:12.829Z,1.00
2022-09-09T02:07:44.031Z,1.00
2022-09-09T02:10:34.479Z,99.90
2022-09-09T02:13:21.223Z,99.90
2022-09-09T02:16:10.214Z,99.90
2022-09-09T02:18:43.067Z,99.90
2022-09-09T02:21:12.647Z,99.90
2022-09-09T02:23:40.949Z,99.90
2022-09-09T02:26:08.800Z,1.00
2022-09-09T02:28:36.340Z,99.90
2022-09-09T02:31:03.385Z,1.00
2022-09-09T02:33:35.904Z,1.00
2022-09-09T02:36:04.574Z,99.90
2022-09-09T02:38:36.347Z,1.00
2022-09-09T02:41:03.457Z,1.00
2022-09-09T02:43:36.582Z,99.90
2022-09-09T02:46:43.129Z,1.00
2022-09-09T02:49:23.071Z,1.00
2022-09-09T02:52:14.783Z,1.00
2022-09-09T02:54:41.428Z,1.00
2022-09-09T02:57:16.984Z,1.00
2022-09-09T02:59:45.207Z,1.00
2022-09-09T03:02:13.681Z,1.00
2022-09-09T03:04:40.809Z,1.00
2022-09-09T03:07:07.391Z,1.00
2022-09-09T03:09:34.028Z,1.00
2022-09-09T03:12:01.349Z,1.00
2022-09-09T03:14:28.309Z,1.00
2022-09-09T03:16:55.747Z,1.00
2022-09-09T03:19:22.377Z,1.00
2022-09-09T03:21:50.367Z,1.00
2022-09-09T03:24:17.252Z,1.00
2022-09-09T03:26:47.932Z,1.00
2022-09-09T03:29:15.596Z,1.00
2022-09-09T03:31:43.482Z,1.00
2022-09-09T03:34:10.213Z,1.00
2022-09-09T03:36:37.116Z,1.00
2022-09-09T03:39:04.351Z,1.00
2022-09-09T03:41:31.715Z,1.00
2022-09-09T03:43:58.376Z,1.00
2022-09-09T03:46:26.544Z,1.00
2022-09-09T03:48:53.410Z,1.00
2022-09-09T03:51:20.078Z,1.00
2022-09-09T03:53:47.484Z,1.00
2022-09-09T03:56:14.108Z,1.00
2022-09-09T03:58:40.741Z,1.00
2022-09-09T04:01:14.335Z,1.00
2022-09-09T04:03:41.721Z,1.00
2022-09-09T04:06:10.446Z,1.00
2022-09-09T04:08:38.259Z,1.00
2022-09-09T04:11:07.111Z,1.00
2022-09-09T04:13:35.701Z,1.00
2022-09-09T04:16:04.680Z,1.00
2022-09-09T04:18:32.965Z,1.00
2022-09-09T04:20:59.638Z,1.00
2022-09-09T04:23:29.953Z,1.00
2022-09-09T04:25:57.895Z,1.00
2022-09-09T04:28:26.558Z,1.00
2022-09-09T04:30:53.319Z,1.00
2022-09-09T04:33:20.340Z,1.00
2022-09-09T04:35:48.734Z,1.00
2022-09-09T04:38:16.348Z,1.00
2022-09-09T04:40:44.539Z,1.00
2022-09-09T04:43:14.338Z,1.00
2022-09-09T04:45:42.025Z,1.00
2022-09-09T04:48:09.184Z,1.00
2022-09-09T04:50:35.807Z,1.00
2022-09-09T04:53:06.330Z,1.00
2022-09-09T04:55:33.377Z,1.00
2022-09-09T04:58:07.601Z,1.00
2022-09-09T05:00:37.875Z,1.00
2022-09-09T05:03:05.913Z,1.00
2022-09-09T05:05:35.078Z,1.00
2022-09-09T05:08:03.539Z,1.00
2022-09-09T05:10:30.179Z,1.00
2022-09-09T05:12:57.105Z,1.00
2022-09-09T05:15:23.979Z,1.00
2022-09-09T05:17:50.654Z,1.00
2022-09-09T05:20:17.661Z,1.00
2022-09-09T05:22:44.851Z,1.00
2022-09-09T05:25:11.481Z,1.00
2022-09-09T05:27:38.568Z,1.00
2022-09-09T05:30:05.672Z,1.00
2022-09-09T05:32:34.295Z,1.00
2022-09-09T05:35:01.003Z,1.00
2022-09-09T05:37:27.627Z,1.00
2022-09-09T05:39:54.356Z,1.00
2022-09-09T05:42:21.112Z,1.00
2022-09-09T05:44:47.977Z,1.00
2022-09-09T05:47:16.166Z,1.00
2022-09-09T05:49:42.734Z,1.00
2022-09-09T05:52:10.698Z,1.00
2022-09-09T05:54:38.504Z,1.00
2022-09-09T05:57:05.245Z,1.00
2022-09-09T05:59:33.160Z,1.00
2022-09-09T06:02:00.063Z,1.00
2022-09-09T06:04:27.175Z,1.00
2022-09-09T06:06:53.796Z,1.00
2022-09-09T06:09:20.467Z,1.00
2022-09-09T06:11:47.067Z,1.00
2022-09-09T06:14:13.903Z,1.00
2022-09-09T06:16:42.193Z,1.00
2022-09-09T06:19:08.854Z,1.00
2022-09-09T06:21:37.920Z,1.00
2022-09-09T06:24:04.827Z,1.00
2022-09-09T06:26:33.779Z,1.00
2022-09-09T06:29:01.161Z,1.00
2022-09-09T06:31:31.191Z,1.00
2022-09-09T06:33:59.074Z,1.00
2022-09-09T06:36:27.185Z,1.00
2022-09-09T06:38:53.924Z,1.00
2022-09-09T06:41:23.732Z,1.00
2022-09-09T06:43:50.664Z,1.00
2022-09-09T06:46:22.750Z,1.00
2022-09-09T06:48:50.048Z,1.00
2022-09-09T06:51:18.854Z,1.00
2022-09-09T06:53:46.966Z,1.00
2022-09-09T06:56:29.061Z,1.00
2022-09-09T06:58:57.570Z,1.00
2022-09-09T07:01:26.455Z,1.00
2022-09-09T07:03:55.514Z,1.00
2022-09-09T07:06:24.849Z,1.00
2022-09-09T07:08:56.647Z,1.00
2022-09-09T07:11:26.738Z,1.00
2022-09-09T07:13:53.605Z,1.00
2022-09-09T07:16:21.894Z,1.00
2022-09-09T07:18:48.633Z,1.00
2022-09-09T07:21:15.703Z,1.00
2022-09-09T07:23:42.827Z,1.00
2022-09-09T07:26:14.753Z,1.00
2022-09-09T07:28:42.267Z,1.00
2022-09-09T07:31:16.388Z,1.00
2022-09-09T07:33:43.778Z,1.00
2022-09-09T07:36:11.498Z,1.00
2022-09-09T07:38:49.945Z,1.00
2022-09-09T07:41:22.587Z,1.00
2022-09-09T07:43:50.510Z,1.00
2022-09-09T07:46:18.707Z,1.00
2022-09-09T07:48:47.124Z,1.00
2022-09-09T07:51:19.856Z,1.00
2022-09-09T07:53:47.602Z,1.00
2022-09-09T07:56:17.615Z,1.00
2022-09-09T07:58:46.573Z,1.00
2022-09-09T08:01:18.838Z,1.00
2022-09-09T08:03:47.041Z,1.00
2022-09-09T08:06:14.770Z,1.00
2022-09-09T08:08:43.424Z,1.00
2022-09-09T08:11:11.291Z,1.00
2022-09-09T08:13:39.118Z,1.00
2022-09-09T08:16:11.267Z,1.00
2022-09-09T08:18:38.737Z,1.00
2022-09-09T08:21:14.532Z,1.00
2022-09-09T08:23:42.308Z,1.00
2022-09-09T08:26:13.003Z,1.00
2022-09-09T08:28:41.078Z,1.00
2022-09-09T08:31:14.337Z,1.00
2022-09-09T08:33:42.238Z,1.00
2022-09-09T08:36:11.349Z,1.00
2022-09-09T08:38:38.810Z,1.00
2022-09-09T08:41:12.073Z,1.00
2022-09-09T08:43:38.712Z,1.00
2022-09-09T08:46:37.958Z,1.00
2022-09-09T08:49:21.659Z,1.00
2022-09-09T08:51:50.730Z,1.00
2022-09-09T08:54:30.193Z,1.00
2022-09-09T08:57:12.782Z,1.00
2022-09-09T08:59:39.540Z,1.00
2022-09-09T09:02:17.127Z,1.00
2022-09-09T09:05:16.747Z,1.00
2022-09-09T09:07:53.035Z,99.90
2022-09-09T09:10:49.029Z,99.90
2022-09-09T09:13:21.678Z,99.90
2022-09-09T09:15:55.238Z,99.90
2022-09-09T09:18:21.945Z,99.90
2022-09-09T09:21:03.748Z,99.90
2022-09-09T09:23:39.146Z,48.80
2022-09-09T09:26:11.729Z,1.00
2022-09-09T09:28:38.555Z,99.90
2022-09-09T09:31:08.094Z,1.00
2022-09-09T09:33:42.757Z,99.90
2022-09-09T09:36:09.797Z,1.00
2022-09-09T09:41:35.163Z,99.90
2022-09-09T09:44:02.708Z,99.90
2022-09-09T09:46:29.412Z,99.90
2022-09-09T09:49:06.669Z,99.90
2022-09-09T09:51:34.378Z,1.00
2022-09-09T09:54:28.543Z,1.00
2022-09-09T09:56:55.290Z,1.00
2022-09-09T09:59:40.707Z,1.00
2022-09-09T10:02:32.676Z,1.00
2022-09-09T10:05:09.993Z,1.00
2022-09-09T10:07:38.300Z,22.80
2022-09-09T10:10:05.705Z,99.90
2022-09-09T10:12:45.005Z,22.20
2022-09-09T10:15:39.733Z,1.00
2022-09-09T10:18:37.509Z,99.90
2022-09-09T10:21:12.570Z,1.00
2022-09-09T10:23:57.486Z,1.00
2022-09-09T10:26:56.304Z,99.90
2022-09-09T10:29:39.545Z,1.00
2022-09-09T10:32:37.046Z,1.00
2022-09-09T10:35:12.656Z,99.90
2022-09-09T10:37:45.927Z,99.90
2022-09-09T10:40:12.518Z,99.90
2022-09-09T10:42:39.510Z,99.90
2022-09-09T10:45:19.096Z,99.90
2022-09-09T10:48:27.386Z,99.90
2022-09-09T10:51:15.571Z,99.90
2022-09-09T10:53:54.474Z,99.90
2022-09-09T10:56:24.581Z,1.00
2022-09-09T10:58:59.398Z,52.30
2022-09-09T11:01:50.332Z,1.00
2022-09-09T11:04:24.069Z,1.00
2022-09-09T11:06:55.340Z,1.00
2022-09-09T11:09:28.638Z,1.00
2022-09-09T11:11:56.445Z,99.90
2022-09-09T11:14:36.849Z,99.90
2022-09-09T11:17:23.949Z,99.90
2022-09-09T11:19:50.580Z,99.90
2022-09-09T11:22:30.878Z,99.90
2022-09-09T11:25:08.794Z,99.90
2022-09-09T11:27:42.784Z,99.90
2022-09-09T11:30:37.685Z,99.90
2022-09-09T11:33:23.796Z,99.90
2022-09-09T11:36:09.259Z,99.90
2022-09-09T11:38:52.129Z,99.90
2022-09-09T11:41:21.987Z,99.90
2022-09-09T11:43:53.380Z,99.90
2022-09-09T11:46:23.097Z,99.90
2022-09-09T11:49:01.346Z,45.90
2022-09-09T11:51:31.283Z,1.00
2022-09-09T11:54:02.153Z,1.00
2022-09-09T11:56:35.531Z,1.00
2022-09-09T11:59:21.773Z,1.00
2022-09-09T12:02:08.019Z,1.00
2022-09-09T12:04:40.574Z,1.00
2022-09-09T12:07:22.388Z,1.00
2022-09-09T12:09:57.589Z,1.00
2022-09-09T12:12:30.220Z,1.00
2022-09-09T12:15:21.552Z,1.00
2022-09-09T12:17:50.358Z,1.00
2022-09-09T12:20:36.051Z,1.00
2022-09-09T12:23:17.539Z,1.00
2022-09-09T12:26:04.994Z,90.20
2022-09-09T12:28:51.756Z,99.90
2022-09-09T12:31:36.750Z,99.90
2022-09-09T12:34:36.937Z,99.90
2022-09-09T12:37:33.185Z,1.00
2022-09-09T12:40:04.207Z,1.00
2022-09-09T12:42:33.148Z,99.90
2022-09-09T12:45:01.930Z,99.90
2022-09-09T12:47:48.936Z,1.00
2022-09-09T12:50:26.541Z,1.00
2022-09-09T12:52:56.609Z,1.00
2022-09-09T12:55:27.070Z,1.00
2022-09-09T12:57:53.840Z,1.00
2022-09-09T13:00:23.544Z,39.00
2022-09-09T13:03:04.206Z,25.20
2022-09-09T13:05:39.837Z,75.80
2022-09-09T13:08:11.097Z,99.90
2022-09-09T13:10:53.827Z,1.00
2022-09-09T13:13:31.222Z,1.00
2022-09-09T13:16:00.099Z,1.00
2022-09-09T13:18:39.297Z,1.00
2022-09-09T13:21:06.164Z,1.00
2022-09-09T13:23:38.659Z,1.00
2022-09-09T13:26:26.817Z,1.00
2022-09-09T13:29:07.999Z,99.90
2022-09-09T13:31:37.524Z,99.90
2022-09-09T13:34:30.637Z,99.90
2022-09-09T13:37:09.134Z,99.90
2022-09-09T13:39:37.453Z,99.90
2022-09-09T13:42:05.332Z,99.90
2022-09-09T13:44:35.412Z,99.90
2022-09-09T13:47:10.754Z,99.90
2022-09-09T13:49:37.872Z,99.90
2022-09-09T13:52:17.772Z,99.90
2022-09-09T13:54:51.998Z,99.90
2022-09-09T13:57:20.963Z,90.10
2022-09-09T14:00:04.036Z,99.90
2022-09-09T14:02:32.258Z,85.30
2022-09-09T14:04:58.958Z,99.90
2022-09-09T14:07:26.350Z,99.90
2022-09-09T14:09:53.459Z,99.90
2022-09-09T14:12:21.271Z,99.90
2022-09-09T14:14:47.975Z,99.90
2022-09-09T14:17:15.439Z,31.90
2022-09-09T14:19:42.247Z,1.00
2022-09-09T14:22:09.045Z,1.00
2022-09-09T14:24:36.224Z,1.00
2022-09-09T14:27:02.998Z,1.00
2022-09-09T14:29:29.702Z,1.00
2022-09-09T14:31:56.336Z,1.00
2022-09-09T14:34:23.000Z,1.00
2022-09-09T14:36:49.636Z,1.00
2022-09-09T14:39:16.306Z,1.00
2022-09-09T14:41:42.948Z,1.00
2022-09-09T14:44:09.681Z,1.00
2022-09-09T14:46:36.322Z,1.00
2022-09-09T14:49:03.068Z,1.00
2022-09-09T14:51:29.781Z,1.00
2022-09-09T14:53:58.260Z,1.00
2022-09-09T14:56:28.654Z,1.00
2022-09-09T14:58:59.141Z,1.00
2022-09-09T15:01:29.328Z,1.00
2022-09-09T15:04:01.448Z,1.00
2022-09-09T15:08:58.725Z,1.00
2022-09-09T15:11:28.726Z,1.00
2022-09-09T15:13:55.578Z,1.00
2022-09-09T15:16:24.415Z,1.00
2022-09-09T15:18:56.324Z,1.00
2022-09-09T15:21:25.073Z,1.00
2022-09-09T15:23:52.497Z,1.00
2022-09-09T15:26:19.675Z,1.00
2022-09-09T15:28:48.325Z,1.00
2022-09-09T15:31:20.112Z,1.00
2022-09-09T15:33:54.912Z,1.00
2022-09-09T15:36:24.172Z,1.00
2022-09-09T15:38:51.881Z,1.00
2022-09-09T15:41:19.810Z,1.00
2022-09-09T15:43:47.611Z,1.00
2022-09-09T15:46:27.342Z,1.00
2022-09-09T15:48:56.334Z,1.00
2022-09-09T15:51:41.727Z,1.00
2022-09-09T15:54:10.603Z,1.00
2022-09-09T15:56:37.194Z,1.00
2022-09-09T15:59:04.109Z,1.00
2022-09-09T16:01:32.031Z,1.00
2022-09-09T16:04:00.851Z,1.00
2022-09-09T16:06:29.323Z,1.00
2022-09-09T16:08:57.576Z,1.00
2022-09-09T16:11:26.434Z,1.00
2022-09-09T16:13:54.431Z,1.00
2022-09-09T16:16:23.379Z,1.00
2022-09-09T16:18:52.942Z,1.00
2022-09-09T16:21:31.056Z,1.00
2022-09-09T16:24:00.464Z,1.00
2022-09-09T16:26:28.396Z,1.00
2022-09-09T16:28:55.215Z,1.00
2022-09-09T16:31:23.787Z,1.00
2022-09-09T16:33:51.461Z,1.00
2022-09-09T16:36:20.578Z,1.00
2022-09-09T16:38:47.199Z,1.00
2022-09-09T16:41:15.418Z,1.00
2022-09-09T16:43:42.264Z,1.00
2022-09-09T16:46:17.476Z,1.00
2022-09-09T16:48:45.444Z,1.00
2022-09-09T16:51:20.977Z,1.00
2022-09-09T16:53:48.028Z,1.00
2022-09-09T16:56:20.486Z,1.00
2022-09-09T16:58:56.541Z,1.00
2022-09-09T17:01:28.184Z,1.00
2022-09-09T17:04:01.425Z,1.00
2022-09-09T17:06:30.132Z,1.00
2022-09-09T17:08:58.106Z,1.00
2022-09-09T17:11:25.328Z,1.00
2022-09-09T17:13:53.090Z,1.00
2022-09-09T17:16:25.062Z,1.00
2022-09-09T17:18:52.289Z,1.00
2022-09-09T17:21:22.327Z,1.00
2022-09-09T17:23:50.543Z,1.00
2022-09-09T17:26:19.273Z,1.00
2022-09-09T17:28:49.573Z,1.00
2022-09-09T17:31:17.925Z,1.00
2022-09-09T17:33:47.017Z,1.00
2022-09-09T17:36:25.424Z,1.00
2022-09-09T17:38:52.818Z,1.00
2022-09-09T17:41:25.011Z,1.00
2022-09-09T17:43:52.248Z,4.60
2022-09-09T17:46:24.488Z,1.00
2022-09-09T17:48:53.821Z,1.00
2022-09-09T17:51:25.922Z,19.40
2022-09-09T17:53:55.705Z,33.30
2022-09-09T17:56:23.536Z,60.60
2022-09-09T17:58:51.186Z,91.20
2022-09-09T18:01:24.828Z,99.90
2022-09-09T18:03:52.167Z,99.90
2022-09-09T18:06:22.274Z,99.90
2022-09-09T18:08:51.670Z,99.90
2022-09-09T18:11:20.377Z,99.90
2022-09-09T18:13:51.049Z,99.90
2022-09-09T18:16:18.771Z,99.90
2022-09-09T18:18:46.695Z,99.90
2022-09-09T18:21:13.415Z,99.90
2022-09-09T18:23:47.019Z,99.90
2022-09-09T18:26:16.640Z,99.90
2022-09-09T18:28:44.223Z,99.90
2022-09-09T18:31:13.496Z,99.90
2022-09-09T18:33:42.990Z,99.90
2022-09-09T18:36:15.796Z,1.00
2022-09-09T18:38:42.932Z,1.00
2022-09-09T18:41:21.953Z,1.00
2022-09-09T18:43:52.337Z,1.00
2022-09-09T18:46:19.913Z,1.00
2022-09-09T18:48:47.196Z,1.00
2022-09-09T18:51:16.244Z,1.00
2022-09-09T18:53:43.424Z,1.00
2022-09-09T18:56:12.402Z,1.00
2022-09-09T18:58:40.233Z,55.90
2022-09-09T19:01:12.359Z,99.90
2022-09-09T19:03:39.638Z,99.90
2022-09-09T19:06:13.183Z,99.90
2022-09-09T19:08:41.471Z,99.90
2022-09-09T19:11:10.246Z,99.90
2022-09-09T19:13:37.250Z,99.90
2022-09-09T19:16:11.634Z,99.90
2022-09-09T19:18:39.568Z,99.90
2022-09-09T19:21:25.202Z,1.00
2022-09-09T19:23:55.882Z,1.00
2022-09-09T19:26:22.909Z,1.00
2022-09-09T19:28:51.685Z,1.00
2022-09-09T19:31:20.060Z,1.00
2022-09-09T19:33:47.784Z,1.00
2022-09-09T19:36:17.806Z,1.00
2022-09-09T19:38:46.189Z,1.00
2022-09-09T19:41:19.006Z,1.00
2022-09-09T19:43:45.925Z,58.80
2022-09-09T19:46:14.339Z,99.90
2022-09-09T19:48:42.332Z,99.90
2022-09-09T19:51:17.400Z,99.90
2022-09-09T19:53:50.824Z,99.90
2022-09-09T19:56:19.119Z,99.90
2022-09-09T19:58:47.485Z,99.90
2022-09-09T20:01:23.314Z,99.90
2022-09-09T20:03:52.211Z,99.90
2022-09-09T20:06:24.880Z,99.90
2022-09-09T20:08:51.474Z,99.90
2022-09-09T20:11:18.496Z,1.00
2022-09-09T20:13:45.140Z,1.00
2022-09-09T20:16:13.838Z,1.00
2022-09-09T20:18:46.096Z,1.00
2022-09-09T20:21:15.390Z,1.00
2022-09-09T20:23:43.333Z,1.00
2022-09-09T20:26:12.812Z,1.00
2022-09-09T20:28:41.141Z,91.60
2022-09-09T20:31:11.056Z,99.90
2022-09-09T20:33:38.629Z,99.90
2022-09-09T20:36:13.380Z,99.90
2022-09-09T20:38:45.426Z,99.90
2022-09-09T20:41:15.078Z,99.90
2022-09-09T20:43:49.061Z,1.00
2022-09-09T20:46:20.605Z,1.00
2022-09-09T20:48:48.192Z,1.00
2022-09-09T20:51:17.253Z,1.00
2022-09-09T20:53:44.157Z,1.00
2022-09-09T20:56:11.125Z,1.00
2022-09-09T20:58:38.404Z,90.90
2022-09-09T21:01:07.350Z,20.10
2022-09-09T21:03:39.098Z,99.90
2022-09-09T21:06:06.935Z,99.90
2022-09-09T21:08:34.816Z,99.90
2022-09-09T21:11:02.671Z,99.90
2022-09-09T21:13:33.488Z,99.90
2022-09-09T21:16:00.235Z,99.90
2022-09-09T21:18:27.379Z,99.90
2022-09-09T21:20:54.263Z,99.90
2022-09-09T21:23:21.519Z,99.90
2022-09-09T21:25:48.977Z,99.90
2022-09-09T21:28:16.573Z,1.00
2022-09-09T21:30:51.125Z,1.00
2022-09-09T21:33:20.128Z,1.00
2022-09-09T21:35:47.134Z,1.00
2022-09-09T21:38:17.373Z,1.00
2022-09-09T21:40:44.962Z,1.00
2022-09-09T21:43:13.066Z,1.00
2022-09-09T21:45:40.986Z,1.00
2022-09-09T21:48:12.541Z,1.00
2022-09-09T21:50:47.144Z,1.00
2022-09-09T21:53:15.812Z,89.10
2022-09-09T21:55:43.500Z,57.30
2022-09-09T21:58:11.554Z,99.90
2022-09-09T22:00:42.717Z,99.90
2022-09-09T22:03:09.639Z,99.90
2022-09-09T22:05:40.930Z,99.90
2022-09-09T22:08:08.254Z,99.90
2022-09-09T22:10:37.159Z,99.90
2022-09-09T22:13:04.249Z,99.90
2022-09-09T22:15:32.497Z,1.00
2022-09-09T22:18:03.083Z,1.00
2022-09-09T22:20:34.639Z,1.00
2022-09-09T22:23:01.833Z,1.00
2022-09-09T22:25:38.040Z,99.90
2022-09-09T22:28:06.534Z,99.90
2022-09-09T22:30:33.627Z,99.90
2022-09-09T22:33:01.156Z,99.90
2022-09-09T22:35:28.994Z,99.90
2022-09-09T22:37:55.878Z,99.90
2022-09-09T22:40:22.742Z,99.90
2022-09-09T22:42:52.755Z,99.90
2022-09-09T22:45:20.828Z,99.90
2022-09-09T22:47:47.698Z,1.00
2022-09-09T22:50:14.455Z,1.00
2022-09-09T22:52:41.085Z,1.00
2022-09-09T22:55:09.225Z,1.00
2022-09-09T22:57:36.119Z,1.00
2022-09-09T23:00:07.009Z,1.00
2022-09-09T23:02:38.723Z,1.00
2022-09-09T23:05:08.605Z,1.00
2022-09-09T23:07:38.358Z,1.00
2022-09-09T23:10:05.911Z,1.00
2022-09-09T23:12:33.444Z,99.90
2022-09-09T23:15:00.280Z,99.90
2022-09-09T23:17:27.131Z,99.90
2022-09-09T23:19:56.997Z,99.90
2022-09-09T23:22:24.381Z,1.00
2022-09-09T23:24:53.529Z,1.00
2022-09-09T23:27:21.444Z,1.00
2022-09-09T23:29:48.731Z,1.00
2022-09-09T23:32:15.785Z,1.00
2022-09-09T23:34:42.430Z,99.90
2022-09-09T23:37:11.219Z,99.90
2022-09-09T23:39:40.271Z,99.90
2022-09-09T23:42:08.216Z,99.90
2022-09-09T23:44:38.472Z,99.90
2022-09-09T23:47:09.326Z,99.90
2022-09-09T23:49:39.187Z,99.90
2022-09-09T23:52:07.092Z,99.90
2022-09-09T23:54:34.447Z,99.90
2022-09-09T23:57:02.901Z,99.90
2022-09-09T23:59:30.728Z,99.90
